Terminal Aerodrome Forecast
Issued by NWS

Home | Current Version | Previous Version | Text Only | Print | Product List | Glossary On
Versions: 1 2 3 4 5 6 7 8 9 10 11 12 13 14 15 16 17 18 19 20 21 22 23 24 25 26 27 28 29 30
000
FTUS45 KPSR 100500
TAFSDL
TAF
KSDL 100522Z 1006/1106 25005KT P6SM SCT100 SCT200
     FM100800 VRB04KT P6SM SCT100 BKN150
     FM101500 18006KT P6SM SCT100 BKN150
     FM102000 25009KT P6SM SCT100 SCT120 BKN200
     FM110400 17012KT P6SM VCSH SCT100 BKN120 BKN200=

USA.gov is the U.S. government's official web portal to all federal, state and local government web resources and services.